Portada
METAR-TAF:

METAR-TAF

Aeroports :

Córdoba, Argentina

latitud: 31-19S, longitud: 064-13W, altitud: 484 m

Observació

L'informe es va fer fa 14 minuts, a les 07:00 UTC
Vent 3 kt del Nord
Temperatura 10°C
Humitat 87%
Pressió 1026 hPa
Visibilitat 10 km o més
sense núvols per sota de 1500 mi sense presència de cumulonimbus.

METAR: SACO 070700Z 35003KT CAVOK 10/08 Q1026 NOSIG

Hora: 04:14 (07:14 UTC)

Pronòstic

L'informe es va fer fa 2 hores i 14 minuts, a les 05:00 UTC
Pronòstic vàlid del 07 a les 06 UTC al 08 a les 06 UTC
Vent 3 kt amb direcció variable
Visibilitat 10 km o més
sense núvols per sota de 1500 mi sense presència de cumulonimbus.
Evolucionant progressivament
l' 07 a les 10 UTC al 07 a les 12 UTC
Vent 10 kt del Nord-Est
Evolucionant progressivament
l' 08 a les 00 UTC al 08 a les 02 UTC
Vent 5 kt del Nord/Nord-Oest

TAF: SACO 070500Z 0706/0806 VRB03KT CAVOK TX22/0718Z TN08/0710Z BECMG 0710/0712 05010KT BECMG 0800/0802 34005KT

Observacions i pronòstics meteorològics de més de 4000 aeroports (METAR i TAF).

Les estacions disponibles són els punts grocs i vermells al mapa.

Posi el ratolí al punt desitjat per veure el nom de l'estació.

Feu clic per veure les observacions i els pronòstics meteorològics.

Per canviar el mapa: feu clic els botons verds amb una creu de color negre per apropar; al botó verd amb un guió per allunyar la imatge; o en les fletxes verdes per a mapes adjacents.


METAR-TAF: